Time;durP1;ratioP1;P1;durP2;ratioP2;P2;SDS_P1;SDS_P2;PMS_P1;PMS_P2;Temp;Humidity;BMP_temperature;BMP_pressure;BME280_temperature;BME280_humidity;BME280_pressure;Samples;Min_cycle;Max_cycle;Signal;HPM_P1;HPM_P2
2021/01/19 00:00:19;;;;;;;33.83;19.25;;;-2.30;81.70;;;;;;5037349;28;20382;-69
2021/01/19 00:02:45;;;;;;;22.85;15.98;;;-2.20;81.60;;;;;;5037759;28;20021;-69
2021/01/19 00:05:11;;;;;;;23.27;14.73;;;-2.30;81.50;;;;;;5037536;28;20075;-69
2021/01/19 00:07:37;;;;;;;23.60;15.68;;;-2.30;81.00;;;;;;5037442;28;20017;-69
2021/01/19 00:10:04;;;;;;;29.95;17.10;;;-2.30;80.50;;;;;;5037660;28;20361;-69
2021/01/19 00:12:29;;;;;;;21.00;14.45;;;-2.30;80.60;;;;;;5037553;28;20060;-69
2021/01/19 00:14:56;;;;;;;25.50;15.35;;;-2.30;80.70;;;;;;5037208;28;20025;-69
2021/01/19 00:17:22;;;;;;;23.63;16.00;;;-2.40;80.70;;;;;;5037520;28;20358;-69
2021/01/19 00:19:47;;;;;;;28.42;17.63;;;-2.40;81.10;;;;;;5037361;28;20168;-69
2021/01/19 00:22:13;;;;;;;27.88;16.42;;;-2.40;81.20;;;;;;5037156;28;20111;-69
2021/01/19 00:24:39;;;;;;;26.70;17.42;;;-2.40;81.10;;;;;;5037163;28;20406;-69
2021/01/19 00:27:04;;;;;;;28.35;17.23;;;-2.40;81.80;;;;;;5035869;28;20064;-69
2021/01/19 00:29:30;;;;;;;29.85;18.50;;;-2.30;81.60;;;;;;5037259;28;20435;-69
2021/01/19 00:31:56;;;;;;;28.50;17.75;;;-2.30;81.30;;;;;;5037015;28;20483;-69
2021/01/19 00:34:23;;;;;;;27.13;17.98;;;-2.30;80.90;;;;;;5037148;28;20076;-69
2021/01/19 00:36:49;;;;;;;24.08;16.63;;;-2.30;81.10;;;;;;5036944;28;20037;-67
2021/01/19 00:39:15;;;;;;;27.48;16.48;;;-2.30;81.40;;;;;;5036816;28;20033;-69
2021/01/19 00:41:41;;;;;;;26.50;16.48;;;-2.30;81.40;;;;;;5036901;28;20016;-67
2021/01/19 00:44:07;;;;;;;23.50;16.02;;;-2.30;81.30;;;;;;5036814;28;20025;-67
2021/01/19 00:46:33;;;;;;;32.15;17.58;;;-2.30;81.60;;;;;;5037035;28;20025;-67
2021/01/19 00:49:00;;;;;;;24.60;16.90;;;-2.40;81.60;;;;;;5036992;28;20033;-67
2021/01/19 00:51:33;;;;;;;24.77;15.73;;;-2.40;81.50;;;;;;5037029;28;20030;-67
2021/01/19 00:53:59;;;;;;;28.15;16.08;;;-2.40;81.50;;;;;;5036727;28;20026;-67
2021/01/19 00:56:24;;;;;;;26.67;15.25;;;-2.40;82.10;;;;;;5037132;28;20428;-67
2021/01/19 00:58:50;;;;;;;21.58;14.65;;;-2.40;81.60;;;;;;5036832;28;20029;-67
2021/01/19 01:01:16;;;;;;;21.05;13.98;;;-2.30;81.60;;;;;;5036882;28;20022;-67
2021/01/19 01:03:41;;;;;;;19.77;13.60;;;-2.30;81.60;;;;;;5036628;28;20414;-67
2021/01/19 01:06:07;;;;;;;21.40;13.55;;;-2.30;81.50;;;;;;5036549;28;20021;-67
2021/01/19 01:08:32;;;;;;;19.23;12.15;;;-2.30;81.00;;;;;;5036603;28;20038;-69
2021/01/19 01:10:58;;;;;;;14.93;10.85;;;-2.40;80.90;;;;;;5038043;28;20021;-69
2021/01/19 01:13:24;;;;;;;17.65;11.82;;;-2.40;80.70;;;;;;5040862;28;20037;-69
2021/01/19 01:15:49;;;;;;;19.33;13.15;;;-2.40;80.60;;;;;;5040851;28;20029;-69
2021/01/19 01:18:15;;;;;;;18.20;11.27;;;-2.40;80.30;;;;;;5040818;28;20064;-69
2021/01/19 01:20:41;;;;;;;18.60;11.88;;;-2.40;79.10;;;;;;5039427;28;20418;-69
2021/01/19 01:23:07;;;;;;;17.98;12.32;;;-2.40;78.90;;;;;;5040492;28;20040;-69
2021/01/19 01:25:33;;;;;;;17.15;10.70;;;-2.40;78.90;;;;;;5040751;28;20108;-69
2021/01/19 01:27:59;;;;;;;16.10;10.77;;;-2.40;78.10;;;;;;5040230;28;20345;-69
2021/01/19 01:30:25;;;;;;;15.40;10.35;;;-2.40;78.10;;;;;;5040433;28;20080;-69
2021/01/19 01:32:51;;;;;;;18.40;11.90;;;-2.30;78.60;;;;;;5040558;28;20029;-69
2021/01/19 01:35:21;;;;;;;19.05;11.93;;;-2.30;79.00;;;;;;5039177;28;20364;-69
2021/01/19 01:37:48;;;;;;;24.70;14.82;;;-2.30;79.40;;;;;;5040169;28;20029;-69
2021/01/19 01:40:18;;;;;;;23.75;15.77;;;-2.30;79.60;;;;;;5040412;28;20315;-69
2021/01/19 01:42:43;;;;;;;21.58;13.82;;;-2.30;79.90;;;;;;5040422;28;20029;-69
2021/01/19 01:45:11;;;;;;;23.33;14.57;;;-2.20;80.00;;;;;;5040107;28;20036;-69
2021/01/19 01:47:38;;;;;;;20.70;14.05;;;-2.20;79.50;;;;;;5040137;28;20022;-69
2021/01/19 01:50:05;;;;;;;19.98;13.25;;;-2.20;79.20;;;;;;5040007;28;20025;-69
2021/01/19 01:52:31;;;;;;;24.33;14.45;;;-2.20;79.30;;;;;;5039951;28;20069;-69
2021/01/19 01:54:57;;;;;;;21.67;13.80;;;-2.30;80.20;;;;;;5040119;28;20021;-69
2021/01/19 01:57:23;;;;;;;20.85;11.98;;;-2.40;80.50;;;;;;5040212;28;20037;-69
2021/01/19 01:59:56;;;;;;;20.30;12.38;;;-2.40;80.60;;;;;;5039801;28;20045;-69
2021/01/19 02:02:21;;;;;;;26.05;16.90;;;-2.40;80.90;;;;;;5038794;28;20068;-69
2021/01/19 02:04:48;;;;;;;25.85;16.77;;;-2.50;80.60;;;;;;5039656;28;20053;-69
2021/01/19 02:07:26;;;;;;;25.25;16.08;;;-2.50;81.00;;;;;;5039965;28;20380;-69
2021/01/19 02:10:09;;;;;;;25.42;15.50;;;-2.50;81.30;;;;;;5039781;28;20466;-69
2021/01/19 02:12:50;;;;;;;21.73;15.23;;;-2.40;81.60;;;;;;5039821;28;20357;-69
2021/01/19 02:15:21;;;;;;;23.73;13.55;;;-2.40;81.20;;;;;;5039489;28;20031;-69
2021/01/19 02:17:56;;;;;;;21.45;13.45;;;-2.40;80.70;;;;;;5039511;28;20030;-69
2021/01/19 02:21:05;;;;;;;17.87;11.50;;;-2.40;80.30;;;;;;5039744;28;20029;-69
2021/01/19 02:23:41;;;;;;;24.25;15.57;;;-2.40;80.60;;;;;;5039688;28;20036;-69
2021/01/19 02:26:40;;;;;;;25.45;15.38;;;-2.40;81.10;;;;;;5039692;28;20104;-69
2021/01/19 02:29:49;;;;;;;22.40;15.55;;;-2.40;81.20;;;;;;5038230;28;20049;-67
2021/01/19 02:32:30;;;;;;;19.70;13.25;;;-2.40;81.30;;;;;;5039189;28;20058;-69
2021/01/19 02:35:14;;;;;;;24.67;14.93;;;-2.40;81.40;;;;;;5039329;28;20033;-67
2021/01/19 02:38:17;;;;;;;22.45;13.95;;;-2.40;81.60;;;;;;5039528;28;20038;-69
2021/01/19 02:40:46;;;;;;;23.75;14.43;;;-2.50;81.80;;;;;;5039133;28;20108;-69
2021/01/19 02:43:13;;;;;;;19.88;13.45;;;-2.50;82.20;;;;;;5038980;28;20025;-69
2021/01/19 02:45:43;;;;;;;19.95;14.05;;;-2.50;82.10;;;;;;5038874;28;20033;-69
2021/01/19 02:48:09;;;;;;;23.83;14.77;;;-2.50;82.10;;;;;;5039449;28;20028;-69
2021/01/19 02:50:35;;;;;;;26.65;15.82;;;-2.40;82.10;;;;;;5038803;28;20032;-69
2021/01/19 02:53:02;;;;;;;25.80;16.00;;;-2.40;81.90;;;;;;5038851;28;20025;-69
2021/01/19 02:55:28;;;;;;;25.35;16.48;;;-2.40;82.10;;;;;;5038973;28;20413;-69
2021/01/19 02:58:05;;;;;;;24.70;14.98;;;-2.40;82.20;;;;;;5038685;28;20041;-69
2021/01/19 03:00:50;;;;;;;19.92;13.70;;;-2.40;82.20;;;;;;5038831;28;20430;-69
2021/01/19 03:03:16;;;;;;;25.45;13.07;;;-2.40;82.30;;;;;;5038923;28;20361;-69
2021/01/19 03:05:43;;;;;;;19.27;12.68;;;-2.50;82.10;;;;;;5038497;28;20432;-69
2021/01/19 03:08:11;;;;;;;15.90;10.20;;;-2.40;81.40;;;;;;5038677;28;20025;-69
2021/01/19 03:10:41;;;;;;;14.82;10.00;;;-2.40;79.50;;;;;;5038672;28;20083;-69
2021/01/19 03:13:14;;;;;;;15.85;10.00;;;-2.30;78.80;;;;;;5038448;28;20321;-69
2021/01/19 03:15:41;;;;;;;17.95;11.38;;;-2.30;78.70;;;;;;5038336;28;20023;-69
2021/01/19 03:18:07;;;;;;;17.45;11.45;;;-2.40;78.80;;;;;;5038319;28;20025;-69
2021/01/19 03:20:34;;;;;;;17.58;11.07;;;-2.40;79.00;;;;;;5038426;28;20049;-69
2021/01/19 03:23:01;;;;;;;19.35;12.45;;;-2.40;80.20;;;;;;5038299;28;20318;-69
2021/01/19 03:25:27;;;;;;;19.83;13.15;;;-2.40;80.40;;;;;;5038415;28;20026;-69
2021/01/19 03:27:53;;;;;;;19.63;13.48;;;-2.30;80.70;;;;;;5038085;28;20345;-69
2021/01/19 03:30:19;;;;;;;21.40;13.05;;;-2.30;81.00;;;;;;5038135;28;20021;-69
2021/01/19 03:32:44;;;;;;;27.85;14.23;;;-2.30;81.00;;;;;;5036794;28;20032;-69
2021/01/19 03:35:10;;;;;;;23.52;13.85;;;-2.20;81.50;;;;;;5037900;28;20021;-69
2021/01/19 03:37:36;;;;;;;21.05;14.25;;;-2.20;81.50;;;;;;5038026;28;20021;-69
2021/01/19 03:40:06;;;;;;;24.67;14.00;;;-2.20;81.30;;;;;;5037976;28;20071;-69
2021/01/19 03:42:31;;;;;;;25.40;13.43;;;-2.10;80.80;;;;;;5038002;28;20025;-69
2021/01/19 03:44:57;;;;;;;22.27;13.85;;;-2.10;80.20;;;;;;5036750;28;20058;-69
2021/01/19 03:47:23;;;;;;;22.58;13.40;;;-2.10;80.50;;;;;;5038051;28;20053;-69
2021/01/19 03:49:49;;;;;;;18.30;12.23;;;-2.20;80.40;;;;;;5037992;28;20029;-69
2021/01/19 03:52:14;;;;;;;20.02;13.90;;;-2.20;80.90;;;;;;5038009;28;20329;-69
2021/01/19 03:54:41;;;;;;;23.98;13.48;;;-2.30;81.40;;;;;;5037484;28;20302;-69
2021/01/19 03:57:07;;;;;;;19.23;12.57;;;-2.30;81.40;;;;;;5037609;28;20037;-69
2021/01/19 03:59:32;;;;;;;21.67;13.65;;;-2.30;81.80;;;;;;5037446;28;20075;-69
2021/01/19 04:01:58;;;;;;;20.88;13.90;;;-2.50;82.20;;;;;;5037787;28;20033;-69
2021/01/19 04:04:25;;;;;;;23.88;15.55;;;-2.50;82.50;;;;;;5037432;28;20420;-69
2021/01/19 04:06:51;;;;;;;23.85;15.20;;;-2.60;83.10;;;;;;5037730;28;20022;-69
2021/01/19 04:09:16;;;;;;;23.70;15.02;;;-2.50;83.10;;;;;;5037638;28;20112;-69
2021/01/19 04:11:42;;;;;;;23.45;14.73;;;-2.60;82.80;;;;;;5037486;28;20068;-69
2021/01/19 04:14:08;;;;;;;24.13;15.80;;;-2.60;82.50;;;;;;5037242;28;20037;-69
2021/01/19 04:16:33;;;;;;;28.73;15.60;;;-2.60;82.60;;;;;;5037236;28;20025;-69
2021/01/19 04:18:59;;;;;;;26.20;15.50;;;-2.50;82.80;;;;;;5037128;28;20032;-69
2021/01/19 04:21:25;;;;;;;22.63;14.63;;;-2.40;82.60;;;;;;5037203;28;20029;-69
2021/01/19 04:23:51;;;;;;;24.98;14.85;;;-2.40;82.50;;;;;;5037145;28;20067;-69
2021/01/19 04:26:16;;;;;;;24.20;15.68;;;-2.40;82.60;;;;;;5037313;28;20021;-70
2021/01/19 04:28:42;;;;;;;26.95;15.75;;;-2.40;82.50;;;;;;5036098;28;20039;-69
2021/01/19 04:31:08;;;;;;;21.20;14.43;;;-2.40;82.50;;;;;;5037046;28;20057;-69
2021/01/19 04:33:33;;;;;;;22.83;13.02;;;-2.50;83.00;;;;;;5037569;28;20025;-69
2021/01/19 04:35:59;;;;;;;21.60;14.18;;;-2.50;83.10;;;;;;5036999;28;20029;-69
2021/01/19 04:38:25;;;;;;;22.55;14.50;;;-2.60;83.10;;;;;;5035815;28;20029;-69
2021/01/19 04:40:50;;;;;;;21.25;13.85;;;-2.60;83.50;;;;;;5037177;28;20032;-69
2021/01/19 04:43:17;;;;;;;23.10;13.80;;;-2.60;83.60;;;;;;5036831;28;20104;-69
2021/01/19 04:45:44;;;;;;;23.65;14.75;;;-2.60;83.70;;;;;;5035961;28;20032;-69
2021/01/19 04:48:10;;;;;;;25.27;14.95;;;-2.60;83.90;;;;;;5036820;28;20414;-69
2021/01/19 04:50:37;;;;;;;26.45;15.73;;;-2.50;83.90;;;;;;5035711;28;20040;-69
2021/01/19 04:53:03;;;;;;;25.63;15.82;;;-2.60;83.90;;;;;;5036771;28;20018;-69
2021/01/19 04:55:36;;;;;;;26.33;15.57;;;-2.60;83.80;;;;;;5037008;28;20036;-69
2021/01/19 04:58:07;;;;;;;31.10;17.23;;;-2.50;83.60;;;;;;5036904;28;20024;-69
2021/01/19 05:00:35;;;;;;;25.95;17.00;;;-2.50;83.50;;;;;;5036816;28;20156;-69
2021/01/19 05:03:22;;;;;;;26.77;16.98;;;-2.50;83.20;;;;;;5036907;28;20032;-69
2021/01/19 05:05:59;;;;;;;23.98;15.57;;;-2.50;83.10;;;;;;5036656;28;20053;-69
2021/01/19 05:08:31;;;;;;;23.42;15.80;;;-2.50;83.10;;;;;;5036874;28;20044;-69
2021/01/19 05:11:02;;;;;;;21.67;13.70;;;-2.60;83.10;;;;;;5036567;28;20028;-69
2021/01/19 05:13:37;;;;;;;20.40;14.10;;;-2.60;83.40;;;;;;5035494;28;20041;-69
2021/01/19 05:16:04;;;;;;;21.10;14.57;;;-2.70;83.40;;;;;;5036537;28;20028;-69
2021/01/19 05:18:31;;;;;;;21.70;14.55;;;-2.70;83.70;;;;;;5036412;28;20026;-69
2021/01/19 05:21:00;;;;;;;75.25;39.83;;;-2.80;84.00;;;;;;5036420;28;20104;-69
2021/01/19 05:23:27;;;;;;;176.70;78.32;;;-2.80;84.10;;;;;;5036566;28;20034;-69
2021/01/19 05:25:54;;;;;;;116.63;52.97;;;-2.80;84.30;;;;;;5036332;28;20108;-69
2021/01/19 05:28:36;;;;;;;111.85;55.95;;;-2.80;84.00;;;;;;5036257;28;20103;-69
2021/01/19 05:31:06;;;;;;;94.47;47.95;;;-2.90;84.40;;;;;;5036437;28;20358;-69
2021/01/19 05:33:32;;;;;;;90.75;48.00;;;-2.90;84.70;;;;;;5036377;28;20029;-69
2021/01/19 05:36:07;;;;;;;67.25;33.67;;;-2.80;84.30;;;;;;5035206;28;20479;-69
2021/01/19 05:38:55;;;;;;;117.88;46.03;;;-2.80;83.80;;;;;;5036310;28;20047;-69
2021/01/19 05:41:28;;;;;;;47.28;21.17;;;-2.80;83.60;;;;;;5036413;28;20028;-69
2021/01/19 05:43:54;;;;;;;27.75;15.25;;;-2.80;83.80;;;;;;5036222;28;20425;-69
2021/01/19 05:46:28;;;;;;;25.63;14.27;;;-2.80;83.60;;;;;;5036536;28;20025;-69
2021/01/19 05:49:01;;;;;;;38.63;21.23;;;-2.80;83.60;;;;;;5036240;28;20032;-69
2021/01/19 05:51:31;;;;;;;156.18;66.57;;;-2.80;83.50;;;;;;5036757;28;20397;-69
2021/01/19 05:53:58;;;;;;;117.50;45.10;;;-2.80;83.20;;;;;;5036402;28;20112;-69
2021/01/19 05:56:25;;;;;;;35.08;17.38;;;-2.80;82.90;;;;;;5037133;28;20041;-69
2021/01/19 05:58:51;;;;;;;25.52;15.93;;;-2.80;83.00;;;;;;5039799;28;20041;-69
2021/01/19 06:01:29;;;;;;;28.08;17.27;;;-2.80;83.40;;;;;;5040045;28;20021;-69
2021/01/19 06:04:00;;;;;;;32.40;16.20;;;-2.80;83.20;;;;;;5039928;28;20433;-69
2021/01/19 06:06:27;;;;;;;25.80;16.05;;;-2.80;83.30;;;;;;5039721;28;20064;-69
2021/01/19 06:09:04;;;;;;;27.38;16.40;;;-2.80;83.40;;;;;;5039688;28;20044;-69
2021/01/19 06:11:30;;;;;;;28.75;17.25;;;-2.80;83.40;;;;;;5039833;28;20060;-69
2021/01/19 06:13:57;;;;;;;26.42;17.20;;;-2.80;83.70;;;;;;5038513;28;20021;-69
2021/01/19 06:16:26;;;;;;;24.92;16.77;;;-2.80;83.70;;;;;;5039615;28;20307;-69
2021/01/19 06:18:53;;;;;;;28.80;17.65;;;-2.80;83.40;;;;;;5039652;28;20029;-69
2021/01/19 06:21:30;;;;;;;32.13;18.50;;;-2.80;83.70;;;;;;5039423;28;20021;-69
2021/01/19 06:23:56;;;;;;;28.42;18.05;;;-2.80;83.60;;;;;;5039465;28;20025;-69
2021/01/19 06:26:22;;;;;;;29.70;18.27;;;-2.80;83.50;;;;;;5039548;28;20033;-69
2021/01/19 06:28:48;;;;;;;24.73;17.25;;;-2.80;83.70;;;;;;5039503;28;20037;-69
2021/01/19 06:31:15;;;;;;;30.25;17.38;;;-2.80;83.70;;;;;;5039247;28;20148;-69
2021/01/19 06:33:41;;;;;;;27.35;16.30;;;-2.80;83.30;;;;;;5039248;28;20075;-69
2021/01/19 06:36:08;;;;;;;27.65;16.65;;;-2.80;83.00;;;;;;5039113;28;20021;-69
2021/01/19 06:38:34;;;;;;;24.17;15.85;;;-2.80;83.30;;;;;;5039178;28;20028;-69
2021/01/19 06:41:02;;;;;;;25.70;15.63;;;-2.80;83.30;;;;;;5039061;28;20400;-69
2021/01/19 06:43:35;;;;;;;26.27;16.02;;;-2.80;83.30;;;;;;5039056;28;20321;-69
2021/01/19 06:46:12;;;;;;;23.95;16.42;;;-2.80;83.60;;;;;;5039031;28;20053;-69
2021/01/19 06:48:41;;;;;;;26.15;14.80;;;-2.90;84.10;;;;;;5039569;28;20039;-69
2021/01/19 06:51:10;;;;;;;25.52;16.63;;;-2.90;84.40;;;;;;5038894;28;20032;-69
2021/01/19 06:53:46;;;;;;;24.33;15.57;;;-2.90;84.70;;;;;;5039028;28;20061;-69
2021/01/19 06:56:16;;;;;;;25.50;15.82;;;-2.80;85.10;;;;;;5038734;28;20060;-69
2021/01/19 06:58:49;;;;;;;25.88;15.75;;;-2.70;84.90;;;;;;5039080;28;20087;-69
2021/01/19 07:01:19;;;;;;;25.52;15.32;;;-2.60;84.90;;;;;;5038967;28;20030;-69
2021/01/19 07:03:46;;;;;;;26.63;16.02;;;-2.60;84.80;;;;;;5038944;28;20113;-69
2021/01/19 07:06:15;;;;;;;29.13;16.90;;;-2.60;84.90;;;;;;5038845;28;20029;-69
2021/01/19 07:09:35;;;;;;;24.73;15.05;;;-2.50;84.90;;;;;;5036588;28;20318;-69
2021/01/19 07:12:08;;;;;;;26.67;15.20;;;-2.50;84.90;;;;;;5056531;28;20417;-69
2021/01/19 07:14:54;;;;;;;24.83;15.98;;;-2.40;85.30;;;;;;5041121;28;20033;-69
2021/01/19 07:17:50;;;;;;;22.83;15.23;;;-2.40;85.50;;;;;;5038708;28;20033;-69
2021/01/19 07:20:29;;;;;;;24.40;15.63;;;-2.40;85.40;;;;;;5036724;28;20033;-69
2021/01/19 07:23:43;;;;;;;34.05;18.88;;;-2.30;85.80;;;;;;5038291;28;20426;-69
2021/01/19 07:26:10;;;;;;;30.50;18.95;;;-2.20;85.80;;;;;;5027680;28;20042;-70
2021/01/19 07:28:35;;;;;;;26.95;17.88;;;-2.10;85.30;;;;;;5038207;28;20119;-69
2021/01/19 07:31:02;;;;;;;32.42;17.92;;;-1.90;84.90;;;;;;5038407;28;20017;-67
2021/01/19 07:33:29;;;;;;;29.50;18.67;;;-1.90;84.70;;;;;;5038128;28;20055;-69
2021/01/19 07:35:55;;;;;;;25.65;17.38;;;-1.80;84.40;;;;;;5038099;28;20037;-69
2021/01/19 07:38:22;;;;;;;25.73;16.25;;;-1.60;84.80;;;;;;5038235;28;20385;-67
2021/01/19 07:40:48;;;;;;;28.67;17.30;;;-1.50;84.60;;;;;;5037956;28;20066;-67
2021/01/19 07:43:15;;;;;;;28.75;17.98;;;-1.40;84.40;;;;;;5037891;28;20057;-67
2021/01/19 07:45:50;;;;;;;26.55;16.35;;;-1.30;84.20;;;;;;5037815;28;20068;-67
2021/01/19 07:48:27;;;;;;;25.08;16.95;;;-1.30;83.20;;;;;;5037901;28;20044;-67
2021/01/19 07:50:53;;;;;;;25.60;16.75;;;-1.20;82.40;;;;;;5037751;28;20026;-67
2021/01/19 07:53:18;;;;;;;24.38;16.85;;;-1.10;81.10;;;;;;5037732;28;20029;-67
2021/01/19 07:55:46;;;;;;;26.38;17.15;;;-1.00;80.70;;;;;;5037962;28;20029;-67
2021/01/19 07:58:20;;;;;;;26.50;16.27;;;-0.90;79.80;;;;;;5037800;28;20029;-67
2021/01/19 08:00:56;;;;;;;27.38;17.83;;;-0.70;79.40;;;;;;5037571;28;20021;-67
2021/01/19 08:03:29;;;;;;;28.70;17.08;;;-0.60;78.70;;;;;;5037564;28;20026;-67
2021/01/19 08:06:06;;;;;;;25.88;17.67;;;-0.50;78.30;;;;;;5037508;28;20021;-67
2021/01/19 08:08:38;;;;;;;31.17;17.73;;;-0.40;78.00;;;;;;5037722;28;20413;-67
2021/01/19 08:11:04;;;;;;;27.73;16.80;;;-0.30;77.80;;;;;;5037389;28;20029;-67
2021/01/19 08:13:29;;;;;;;30.15;16.95;;;-0.20;77.90;;;;;;5037298;28;20321;-67
2021/01/19 08:16:05;;;;;;;25.73;17.00;;;-0.10;77.70;;;;;;5037330;28;20028;-68
2021/01/19 08:18:57;;;;;;;27.48;15.90;;;0.00;77.20;;;;;;5037831;28;20029;-67
2021/01/19 08:21:26;;;;;;;30.67;16.48;;;0.00;77.50;;;;;;5037205;28;20022;-67
2021/01/19 08:23:51;;;;;;;22.75;15.52;;;0.00;77.00;;;;;;5037279;28;20032;-67
2021/01/19 08:26:19;;;;;;;24.45;16.15;;;0.10;76.60;;;;;;5036847;28;20021;-68
2021/01/19 08:28:44;;;;;;;25.80;16.05;;;0.20;75.00;;;;;;5037093;28;20045;-68
2021/01/19 08:31:16;;;;;;;21.63;14.68;;;0.20;75.70;;;;;;5037055;28;20033;-67
2021/01/19 08:33:42;;;;;;;26.45;16.27;;;0.30;74.80;;;;;;5037199;28;20028;-67
2021/01/19 08:36:10;;;;;;;24.73;16.92;;;0.30;74.40;;;;;;5036941;28;20357;-67
2021/01/19 08:38:36;;;;;;;23.02;16.38;;;0.30;74.40;;;;;;5035830;28;20026;-67
2021/01/19 08:41:02;;;;;;;25.65;16.23;;;0.40;74.50;;;;;;5037175;28;20018;-67
2021/01/19 08:43:28;;;;;;;28.73;15.85;;;0.50;75.10;;;;;;5036835;28;20470;-67
2021/01/19 08:45:57;;;;;;;26.35;16.65;;;0.60;74.30;;;;;;5036851;28;20029;-68
2021/01/19 08:48:24;;;;;;;24.25;15.60;;;0.80;73.80;;;;;;5037103;28;20029;-67
2021/01/19 08:50:50;;;;;;;33.28;16.13;;;1.00;73.40;;;;;;5036810;28;20037;-67
2021/01/19 08:53:15;;;;;;;23.60;15.55;;;1.10;72.30;;;;;;5036744;28;20318;-68
2021/01/19 08:55:45;;;;;;;23.70;15.80;;;1.10;71.80;;;;;;5037096;28;20352;-68
2021/01/19 08:58:19;;;;;;;22.90;15.10;;;1.20;72.90;;;;;;5036597;28;20036;-67
2021/01/19 09:00:45;;;;;;;22.85;15.20;;;1.30;71.10;;;;;;5036777;28;20421;-67
2021/01/19 09:03:15;;;;;;;24.00;15.48;;;1.40;71.30;;;;;;5036619;28;20051;-68
2021/01/19 09:05:41;;;;;;;21.30;12.88;;;1.50;71.30;;;;;;5036898;28;20014;-67
2021/01/19 09:08:19;;;;;;;22.85;14.77;;;1.60;69.20;;;;;;5036645;28;20018;-67
2021/01/19 09:10:45;;;;;;;23.30;14.55;;;1.60;69.20;;;;;;5036822;28;20100;-67
2021/01/19 09:13:12;;;;;;;21.20;14.73;;;1.60;69.20;;;;;;5036547;28;20434;-67
2021/01/19 09:15:43;;;;;;;20.42;13.73;;;1.50;69.50;;;;;;5036527;28;20441;-67
2021/01/19 09:18:14;;;;;;;20.58;14.77;;;1.60;69.60;;;;;;5036598;28;20026;-69
2021/01/19 09:20:41;;;;;;;22.10;14.10;;;1.90;69.60;;;;;;5036738;28;20028;-69
2021/01/19 09:23:15;;;;;;;21.85;14.18;;;2.30;69.10;;;;;;5035732;28;20025;-69
2021/01/19 09:25:44;;;;;;;21.48;14.10;;;2.80;68.50;;;;;;5036826;28;20049;-70
2021/01/19 09:28:11;;;;;;;19.13;12.95;;;3.40;66.40;;;;;;5036307;28;20054;-69
2021/01/19 09:30:37;;;;;;;21.48;13.75;;;3.80;64.80;;;;;;5036505;28;20018;-69
2021/01/19 09:33:07;;;;;;;21.25;13.65;;;4.20;63.80;;;;;;5039629;28;20018;-68
2021/01/19 09:35:34;;;;;;;20.38;12.63;;;4.30;62.30;;;;;;5040314;28;20105;-68
2021/01/19 09:38:01;;;;;;;18.42;13.18;;;4.60;62.30;;;;;;5040666;28;20313;-69
2021/01/19 09:40:30;;;;;;;19.20;12.55;;;4.60;61.50;;;;;;5040161;28;20025;-68
2021/01/19 09:42:57;;;;;;;22.08;13.82;;;4.80;60.40;;;;;;5040470;28;20064;-68
2021/01/19 09:45:23;;;;;;;17.05;12.45;;;4.90;59.00;;;;;;5040122;28;20036;-68
2021/01/19 09:47:50;;;;;;;19.55;12.68;;;5.20;60.00;;;;;;5040386;28;20099;-68
2021/01/19 09:50:15;;;;;;;21.75;12.93;;;5.70;57.40;;;;;;5040108;28;20029;-68
2021/01/19 09:52:48;;;;;;;22.75;13.60;;;6.10;56.60;;;;;;5040211;28;20033;-68
2021/01/19 09:55:20;;;;;;;20.90;12.50;;;6.40;55.30;;;;;;5040099;28;20407;-68
2021/01/19 09:58:00;;;;;;;15.13;11.80;;;7.00;54.70;;;;;;5040256;28;20124;-68
2021/01/19 10:00:30;;;;;;;15.80;12.40;;;7.50;53.10;;;;;;5039800;28;20036;-68
2021/01/19 10:02:56;;;;;;;14.63;11.15;;;7.60;52.60;;;;;;5039867;28;20018;-68
2021/01/19 10:05:23;;;;;;;15.57;11.73;;;7.60;51.90;;;;;;5039807;28;20067;-68
2021/01/19 10:07:49;;;;;;;17.25;11.77;;;7.80;51.50;;;;;;5039311;28;20457;-68
2021/01/19 10:10:16;;;;;;;14.43;11.15;;;8.00;52.40;;;;;;5043742;28;20317;-68
2021/01/19 10:12:43;;;;;;;15.27;11.52;;;8.30;49.60;;;;;;5053380;28;20025;-68
2021/01/19 10:15:12;;;;;;;14.27;11.50;;;8.60;49.70;;;;;;5059492;28;20074;-68
2021/01/19 10:17:38;;;;;;;14.05;10.88;;;8.50;49.10;;;;;;5059486;28;20021;-68
2021/01/19 10:20:15;;;;;;;15.73;10.57;;;8.40;49.50;;;;;;5059294;28;20027;-68
2021/01/19 10:22:49;;;;;;;18.95;11.52;;;8.40;49.10;;;;;;5059884;28;20033;-68
2021/01/19 10:25:30;;;;;;;21.98;13.05;;;8.70;49.10;;;;;;5059445;28;20417;-68
2021/01/19 10:28:01;;;;;;;18.75;12.63;;;8.80;48.70;;;;;;5059182;28;20091;-68
2021/01/19 10:30:29;;;;;;;15.30;11.43;;;8.90;48.80;;;;;;5059210;28;20374;-68
2021/01/19 10:32:55;;;;;;;15.25;11.35;;;9.10;48.00;;;;;;5059363;28;20325;-68
2021/01/19 10:35:32;;;;;;;15.77;10.70;;;9.20;47.00;;;;;;5059374;28;20027;-68
2021/01/19 10:38:06;;;;;;;13.82;10.52;;;9.10;46.70;;;;;;5058082;28;20033;-68
2021/01/19 10:40:33;;;;;;;17.92;10.88;;;9.10;47.30;;;;;;5059173;28;20367;-68
2021/01/19 10:43:11;;;;;;;14.20;10.27;;;9.20;46.80;;;;;;5057760;28;20045;-68
2021/01/19 10:45:40;;;;;;;17.20;11.55;;;9.00;46.40;;;;;;5058928;28;20321;-68
2021/01/19 10:48:20;;;;;;;14.18;10.70;;;8.70;47.70;;;;;;5058982;28;20096;-68
2021/01/19 10:50:47;;;;;;;16.17;10.70;;;8.10;47.50;;;;;;5058898;28;20409;-67
2021/01/19 10:53:13;;;;;;;17.08;12.63;;;7.90;48.90;;;;;;5059112;28;20340;-67
2021/01/19 10:55:39;;;;;;;14.77;11.65;;;8.40;47.90;;;;;;5059043;28;20113;-68
2021/01/19 10:58:05;;;;;;;15.38;10.43;;;8.60;47.60;;;;;;5059053;28;20025;-68
2021/01/19 11:00:33;;;;;;;14.02;10.77;;;8.90;47.40;;;;;;5058930;28;20024;-68
2021/01/19 11:02:59;;;;;;;18.23;11.65;;;9.10;46.60;;;;;;5058880;28;20024;-68
2021/01/19 11:05:26;;;;;;;14.00;11.32;;;9.40;45.80;;;;;;5058862;28;20045;-67
2021/01/19 11:07:53;;;;;;;20.15;12.00;;;9.40;46.40;;;;;;5058867;28;20083;-67
2021/01/19 11:10:22;;;;;;;12.73;11.02;;;9.50;45.90;;;;;;5058801;28;20404;-67
2021/01/19 11:12:50;;;;;;;16.45;12.18;;;9.60;45.90;;;;;;5058492;28;20021;-68
2021/01/19 11:15:16;;;;;;;16.52;11.82;;;9.60;45.60;;;;;;5058652;28;20022;-67
2021/01/19 11:17:42;;;;;;;14.07;11.35;;;9.90;44.70;;;;;;5057347;28;20072;-67
2021/01/19 11:20:09;;;;;;;17.25;12.40;;;9.90;45.00;;;;;;5058365;28;20029;-68
2021/01/19 11:22:36;;;;;;;18.85;11.85;;;9.90;45.90;;;;;;5057255;28;20025;-69
2021/01/19 11:25:03;;;;;;;14.20;12.68;;;9.80;46.20;;;;;;5058356;28;20029;-68
2021/01/19 11:27:29;;;;;;;17.88;12.25;;;9.90;45.30;;;;;;5058067;28;20403;-69
2021/01/19 11:29:55;;;;;;;18.60;12.90;;;9.50;46.70;;;;;;5058148;28;20059;-69
2021/01/19 11:32:21;;;;;;;17.80;12.82;;;8.90;46.70;;;;;;5057038;28;20025;-69
2021/01/19 11:34:48;;;;;;;19.15;12.68;;;8.50;48.90;;;;;;5057988;28;20066;-69
2021/01/19 11:37:14;;;;;;;16.98;13.05;;;8.00;48.00;;;;;;5058091;28;20029;-69
2021/01/19 11:39:41;;;;;;;18.73;13.70;;;8.00;48.90;;;;;;5057901;28;20029;-69
2021/01/19 11:42:06;;;;;;;16.80;14.77;;;8.50;48.90;;;;;;5058204;28;20052;-69
2021/01/19 11:44:34;;;;;;;21.95;16.83;;;9.00;48.90;;;;;;5057779;28;20021;-68
2021/01/19 11:47:00;;;;;;;21.73;16.20;;;9.30;48.60;;;;;;5057876;28;20029;-69
2021/01/19 11:49:25;;;;;;;23.70;16.65;;;9.50;47.40;;;;;;5058007;28;20116;-69
2021/01/19 11:51:51;;;;;;;22.17;16.15;;;9.50;47.60;;;;;;5057726;28;20108;-67
2021/01/19 11:54:17;;;;;;;21.58;16.90;;;9.50;48.50;;;;;;5057134;28;20466;-69
2021/01/19 11:56:49;;;;;;;22.00;16.90;;;9.40;47.50;;;;;;5057709;28;20337;-67
2021/01/19 11:59:16;;;;;;;25.58;17.63;;;9.10;49.40;;;;;;5057739;28;20073;-67
2021/01/19 12:01:43;;;;;;;24.35;18.17;;;9.30;49.30;;;;;;5057540;28;20080;-67
2021/01/19 12:04:09;;;;;;;20.38;16.80;;;9.20;48.60;;;;;;5057594;28;20017;-67
2021/01/19 12:06:41;;;;;;;23.40;17.63;;;9.20;48.20;;;;;;5057408;28;20032;-67
2021/01/19 12:09:08;;;;;;;20.85;17.52;;;9.20;48.70;;;;;;5057609;28;20320;-67
2021/01/19 12:11:45;;;;;;;24.15;17.48;;;8.70;51.20;;;;;;5057325;28;20029;-69
2021/01/19 12:14:11;;;;;;;21.48;16.58;;;8.60;50.70;;;;;;5057547;28;20056;-67
2021/01/19 12:16:38;;;;;;;23.15;17.33;;;8.70;50.50;;;;;;5057214;28;20029;-68
2021/01/19 12:19:09;;;;;;;23.92;18.30;;;8.70;48.70;;;;;;5057418;28;20040;-69
2021/01/19 12:21:37;;;;;;;24.25;18.13;;;8.60;50.20;;;;;;5056102;28;20108;-67
2021/01/19 12:24:04;;;;;;;22.20;17.38;;;8.20;51.40;;;;;;5057140;28;20048;-67
2021/01/19 12:26:30;;;;;;;22.73;18.60;;;8.20;50.20;;;;;;5055902;28;20049;-67
2021/01/19 12:28:56;;;;;;;24.27;19.73;;;8.10;51.30;;;;;;5056035;28;20033;-68
2021/01/19 12:31:21;;;;;;;27.05;19.67;;;8.00;52.80;;;;;;5057031;28;20032;-68
2021/01/19 12:33:47;;;;;;;25.23;18.42;;;8.20;51.40;;;;;;5057120;28;20032;-69
2021/01/19 12:36:13;;;;;;;25.67;19.27;;;8.00;51.60;;;;;;5057196;28;20029;-68
2021/01/19 12:38:38;;;;;;;25.42;18.55;;;7.60;52.60;;;;;;5056957;28;20081;-68
2021/01/19 12:41:05;;;;;;;25.45;18.08;;;7.60;53.20;;;;;;5056870;28;20099;-68